Time;durP1;ratioP1;P1;durP2;ratioP2;P2;SDS_P1;SDS_P2;PMS_P1;PMS_P2;Temp;Humidity;BMP_temperature;BMP_pressure;BME280_temperature;BME280_humidity;BME280_pressure;Samples;Min_cycle;Max_cycle;Signal;HPM_P1;HPM_P2
2021/03/16 00:01:06;;;;;;;15.07;10.00;;;102.90;2227.20;;;;;;4975490;28;20023;-75
2021/03/16 00:03:35;;;;;;;16.13;10.45;;;102.90;2227.20;;;;;;4967677;28;20047;-75
2021/03/16 00:06:00;;;;;;;13.23;10.35;;;102.80;2227.20;;;;;;4974727;28;20447;-73
2021/03/16 00:08:26;;;;;;;13.43;9.88;;;102.80;2227.20;;;;;;4975380;28;20030;-73
2021/03/16 00:10:53;;;;;;;13.50;10.00;;;102.70;2227.20;;;;;;4966184;28;20500;-73
2021/03/16 00:13:19;;;;;;;16.77;9.77;;;102.70;2227.20;;;;;;4974642;28;20369;-74
2021/03/16 00:15:45;;;;;;;14.88;10.75;;;102.60;2227.20;;;;;;4974360;28;20030;-73
2021/03/16 00:18:15;;;;;;;13.77;9.85;;;102.60;2227.20;;;;;;4973272;28;20065;-73
2021/03/16 00:20:45;;;;;;;14.65;10.20;;;102.60;2227.20;;;;;;4974986;28;20035;-75
2021/03/16 00:23:12;;;;;;;14.43;10.50;;;102.50;2227.20;;;;;;4974999;28;20034;-73
2021/03/16 00:25:39;;;;;;;13.40;10.07;;;102.50;2227.20;;;;;;4974728;28;20035;-74
2021/03/16 00:28:06;;;;;;;16.27;10.73;;;102.50;2227.20;;;;;;4974784;28;20078;-74
2021/03/16 00:30:32;;;;;;;15.98;11.20;;;102.50;2227.20;;;;;;4966620;28;20146;-73
2021/03/16 00:32:58;;;;;;;13.70;10.15;;;102.70;2227.20;;;;;;4974719;28;20031;-73
2021/03/16 00:35:24;;;;;;;14.43;10.05;;;102.40;2227.20;;;;;;4974003;28;20031;-75
2021/03/16 00:37:50;;;;;;;13.90;10.88;;;102.40;2227.20;;;;;;4974434;28;20392;-74
2021/03/16 00:40:16;;;;;;;17.70;11.40;;;102.40;2227.20;;;;;;4972209;28;20106;-74
2021/03/16 00:42:42;;;;;;;15.52;11.02;;;77.70;2227.20;;;;;;4973253;28;20164;-75
2021/03/16 00:45:09;;;;;;;14.70;10.55;;;77.60;2227.20;;;;;;4975330;28;20074;-74
2021/03/16 00:47:35;;;;;;;14.57;11.10;;;77.60;2227.20;;;;;;4974385;28;20031;-74
2021/03/16 00:50:05;;;;;;;16.75;11.40;;;77.60;2227.20;;;;;;4973652;28;20031;-74
2021/03/16 00:52:32;;;;;;;14.02;11.23;;;77.60;2227.20;;;;;;4972496;28;20026;-73
2021/03/16 00:54:57;;;;;;;15.00;11.25;;;77.50;2227.20;;;;;;4974667;28;20499;-74
2021/03/16 00:57:23;;;;;;;14.60;11.02;;;77.40;2227.20;;;;;;4974410;28;20035;-74
2021/03/16 00:59:49;;;;;;;16.17;11.80;;;77.40;2227.20;;;;;;4973814;28;20041;-73
2021/03/16 01:02:15;;;;;;;15.45;11.57;;;77.40;2227.20;;;;;;4969534;28;20035;-74
2021/03/16 01:04:41;;;;;;;16.23;11.82;;;77.30;2227.20;;;;;;4971273;28;20042;-75
2021/03/16 01:07:07;;;;;;;16.42;11.00;;;77.30;2227.20;;;;;;4966840;28;20105;-73
2021/03/16 01:09:33;;;;;;;15.10;11.50;;;77.30;2227.20;;;;;;4972846;28;20062;-73
2021/03/16 01:11:58;;;;;;;14.82;10.63;;;77.20;2227.20;;;;;;4978424;28;20031;-73
2021/03/16 01:14:24;;;;;;;15.35;10.73;;;77.20;2227.20;;;;;;4970503;28;20023;-73
2021/03/16 01:16:50;;;;;;;16.95;11.60;;;77.10;2227.20;;;;;;4974295;28;20030;-75
2021/03/16 01:19:15;;;;;;;15.73;11.35;;;77.00;2227.20;;;;;;4972832;28;20023;-74
2021/03/16 01:21:41;;;;;;;16.88;11.40;;;77.10;2227.20;;;;;;4974467;28;20027;-76
2021/03/16 01:24:08;;;;;;;13.13;10.63;;;77.10;2227.20;;;;;;4972626;28;20385;-73
2021/03/16 01:26:33;;;;;;;15.88;11.27;;;77.30;2227.20;;;;;;4974205;28;20047;-74
2021/03/16 01:29:01;;;;;;;17.15;12.05;;;77.00;2227.20;;;;;;4973496;28;20061;-77
2021/03/16 01:31:27;;;;;;;18.73;12.43;;;77.00;2227.20;;;;;;4975001;28;20054;-73
2021/03/16 01:33:52;;;;;;;18.05;11.70;;;76.90;2227.20;;;;;;4973749;28;20070;-74
2021/03/16 01:36:18;;;;;;;16.50;11.52;;;76.90;2227.20;;;;;;4972322;28;20038;-74
2021/03/16 01:38:44;;;;;;;15.43;11.65;;;76.90;2227.20;;;;;;4973981;28;20414;-74
2021/03/16 01:41:09;;;;;;;18.83;12.10;;;76.90;2227.20;;;;;;4973096;28;20029;-73
2021/03/16 01:43:35;;;;;;;18.40;11.93;;;76.90;2227.20;;;;;;4971705;28;20027;-75
2021/03/16 01:46:01;;;;;;;14.93;11.10;;;76.90;2227.20;;;;;;4973984;28;20050;-73
2021/03/16 01:48:33;;;;;;;16.33;11.45;;;76.80;2227.20;;;;;;4969443;28;20023;-73
2021/03/16 01:51:02;;;;;;;16.90;11.63;;;76.80;2227.20;;;;;;4982015;28;20026;-73
2021/03/16 01:53:27;;;;;;;17.05;11.68;;;76.80;2227.20;;;;;;4977374;28;20062;-74
2021/03/16 01:55:54;;;;;;;17.42;11.90;;;76.80;2227.20;;;;;;4973894;28;20062;-74
2021/03/16 01:58:20;;;;;;;16.23;11.55;;;52.10;2227.20;;;;;;4971170;28;20485;-75
2021/03/16 02:00:46;;;;;;;17.83;12.02;;;52.10;2227.20;;;;;;4975360;28;20030;-74
2021/03/16 02:03:12;;;;;;;18.85;13.23;;;52.10;2227.20;;;;;;4967984;28;20484;-74
2021/03/16 02:05:43;;;;;;;17.85;12.02;;;52.10;2227.20;;;;;;4956366;28;20047;-73
2021/03/16 02:08:39;;;;;;;15.55;11.63;;;52.10;2227.20;;;;;;4972387;28;20389;-74
2021/03/16 02:11:33;;;;;;;14.50;10.68;;;52.00;2227.20;;;;;;4969274;28;20038;-74
2021/03/16 02:14:10;;;;;;;15.07;11.35;;;76.80;2227.20;;;;;;4962877;28;20039;-74
2021/03/16 02:16:45;;;;;;;18.10;11.70;;;52.10;2227.20;;;;;;4962023;28;20030;-73
2021/03/16 02:19:40;;;;;;;14.77;10.98;;;52.10;2227.20;;;;;;4969209;28;20023;-74
2021/03/16 02:22:07;;;;;;;13.93;11.20;;;52.10;2227.20;;;;;;4973044;28;20031;-73
2021/03/16 02:24:48;;;;;;;14.68;10.25;;;52.00;2227.20;;;;;;4956013;28;20063;-75
2021/03/16 02:27:16;;;;;;;16.30;10.75;;;51.90;2227.20;;;;;;4964238;28;20488;-75
2021/03/16 02:29:52;;;;;;;18.65;11.80;;;51.90;2227.20;;;;;;4974061;28;20053;-74
2021/03/16 02:32:28;;;;;;;16.25;11.65;;;51.90;2227.20;;;;;;4969161;28;20039;-73
2021/03/16 02:35:02;;;;;;;16.42;11.23;;;51.90;2227.20;;;;;;4973190;28;20027;-74
2021/03/16 02:37:28;;;;;;;;;;;51.90;2227.20;;;;;;4975888;28;20559;-74
2021/03/16 02:39:55;;;;;;;15.45;11.27;;;51.90;2227.20;;;;;;4973165;28;20377;-73
2021/03/16 02:42:24;;;;;;;15.93;11.07;;;77.00;2227.20;;;;;;4965072;28;20043;-74
2021/03/16 02:44:51;;;;;;;16.83;10.93;;;51.80;2227.20;;;;;;4972285;28;20445;-74
2021/03/16 02:47:22;;;;;;;17.65;10.80;;;51.80;2227.20;;;;;;4974352;28;20086;-74
2021/03/16 02:49:49;;;;;;;16.17;10.38;;;51.80;2227.20;;;;;;4971395;28;20026;-73
2021/03/16 02:52:16;;;;;;;14.27;10.25;;;52.00;2227.20;;;;;;4973294;28;20055;-74
2021/03/16 02:54:43;;;;;;;13.52;10.02;;;51.90;2227.20;;;;;;4972711;28;20023;-74
2021/03/16 02:57:13;;;;;;;19.77;11.25;;;;;;;;;;4973898;28;20035;-74
2021/03/16 02:59:41;;;;;;;15.20;11.02;;;;;;;;;;4975967;28;20105;-75
2021/03/16 03:02:10;;;;;;;13.88;10.32;;;;;;;;;;4973170;28;20043;-74
2021/03/16 03:04:36;;;;;;;15.10;9.77;;;;;;;;;;4976099;28;20481;-74
2021/03/16 03:07:03;;;;;;;13.07;9.75;;;;;;;;;;4976235;28;21730;-74
2021/03/16 03:09:29;;;;;;;13.50;9.73;;;;;;;;;;4976278;28;20035;-74
2021/03/16 03:11:55;;;;;;;14.15;9.75;;;;;;;;;;4978070;28;20023;-74
2021/03/16 03:14:21;;;;;;;15.07;9.82;;;;;;;;;;4975678;28;20031;-74
2021/03/16 03:16:47;;;;;;;13.57;9.60;;;;;;;;;;4977495;28;20109;-74
2021/03/16 03:19:13;;;;;;;13.68;10.18;;;;;;;;;;4976659;28;20558;-74
2021/03/16 03:21:48;;;;;;;15.70;10.02;;;;;;;;;;4971851;28;20122;-73
2021/03/16 03:24:18;;;;;;;13.93;9.95;;;;;;;;;;4973157;28;20039;-73
2021/03/16 03:26:59;;;;;;;16.70;10.65;;;;;;;;;;4977204;28;20037;-74
2021/03/16 03:29:27;;;;;;;14.48;9.98;;;;;;;;;;4975723;28;20023;-74
2021/03/16 03:31:53;;;;;;;17.00;10.70;;;;;;;;;;4976812;28;20457;-73
2021/03/16 03:34:20;;;;;;;15.07;10.13;;;;;;;;;;4972292;28;20034;-74
2021/03/16 03:36:48;;;;;;;15.88;10.35;;;;;;;;;;4975914;28;20030;-74
2021/03/16 03:39:15;;;;;;;15.63;10.25;;;;;;;;;;4977028;28;20106;-76
2021/03/16 03:41:41;;;;;;;14.27;9.98;;;;;;;;;;4977184;28;20050;-74
2021/03/16 03:44:08;;;;;;;14.38;9.63;;;;;;;;;;4976051;28;20026;-73
2021/03/16 03:46:35;;;;;;;14.35;10.05;;;;;;;;;;4970645;28;20523;-74
2021/03/16 03:49:04;;;;;;;12.88;9.65;;;;;;;;;;4975858;28;20065;-74
2021/03/16 03:51:31;;;;;;;12.77;9.23;;;;;;;;;;4966655;28;20035;-74
2021/03/16 03:53:59;;;;;;;15.30;9.27;;;;;;;;;;4976560;28;20377;-73
2021/03/16 03:56:27;;;;;;;13.30;9.52;;;;;;;;;;4977638;28;20077;-74
2021/03/16 03:58:54;;;;;;;12.02;9.18;;;;;;;;;;4973122;28;20034;-74
2021/03/16 04:01:20;;;;;;;14.30;9.18;;;;;;;;;;4976726;28;20027;-74
2021/03/16 04:03:46;;;;;;;15.50;9.65;;;;;;;;;;4968602;28;20497;-73
2021/03/16 04:06:12;;;;;;;13.98;9.43;;;;;;;;;;4968305;28;20039;-74
2021/03/16 04:08:39;;;;;;;15.48;9.88;;;;;;;;;;4975290;28;20027;-73
2021/03/16 04:11:05;;;;;;;13.70;9.50;;;51.80;2227.20;;;;;;4969639;28;20050;-74
2021/03/16 04:13:32;;;;;;;13.88;10.27;;;51.70;2227.20;;;;;;4975039;28;20062;-73
2021/03/16 04:16:00;;;;;;;13.27;9.57;;;51.70;2227.20;;;;;;4975268;28;20038;-73
2021/03/16 04:18:26;;;;;;;15.90;10.32;;;51.70;2227.20;;;;;;4968640;28;20084;-74
2021/03/16 04:20:52;;;;;;;14.27;9.95;;;51.70;2227.20;;;;;;4964829;28;20404;-74
2021/03/16 04:23:18;;;;;;;15.15;9.98;;;51.70;2227.20;;;;;;4966828;28;20468;-73
2021/03/16 04:25:44;;;;;;;12.98;9.82;;;51.70;2227.20;;;;;;4975812;28;20035;-74
2021/03/16 04:28:09;;;;;;;16.15;9.57;;;51.60;2227.20;;;;;;4974966;28;20034;-78
2021/03/16 04:30:35;;;;;;;14.38;9.80;;;51.60;2227.20;;;;;;4967367;28;20042;-74
2021/03/16 04:33:01;;;;;;;16.63;10.27;;;51.60;2227.20;;;;;;4961711;28;20031;-74
2021/03/16 04:35:27;;;;;;;18.83;10.65;;;51.60;2227.20;;;;;;4973669;28;20035;-73
2021/03/16 04:37:52;;;;;;;12.35;9.85;;;51.60;2227.20;;;;;;4967132;28;20046;-74
2021/03/16 04:40:20;;;;;;;16.95;10.68;;;51.60;2227.20;;;;;;4970797;28;20051;-73
2021/03/16 04:42:46;;;;;;;14.00;10.32;;;51.50;2227.20;;;;;;4972122;28;20027;-74
2021/03/16 04:45:12;;;;;;;17.42;10.38;;;51.60;2227.20;;;;;;4973070;28;20121;-74
2021/03/16 04:47:38;;;;;;;14.77;10.20;;;51.60;2227.20;;;;;;4970683;28;20034;-74
2021/03/16 04:50:05;;;;;;;14.38;11.23;;;51.50;2227.20;;;;;;4976177;28;20038;-76
2021/03/16 04:52:31;;;;;;;18.60;10.70;;;51.60;2227.20;;;;;;4972119;28;20033;-72
2021/03/16 04:54:56;;;;;;;15.23;10.52;;;51.60;2227.20;;;;;;4970287;28;20027;-72
2021/03/16 04:57:22;;;;;;;14.25;10.27;;;51.60;2227.20;;;;;;4973802;28;20027;-73
2021/03/16 04:59:48;;;;;;;15.52;9.30;;;51.80;2227.20;;;;;;4966442;28;20030;-73
2021/03/16 05:02:16;;;;;;;14.25;10.20;;;51.70;2227.20;;;;;;4960236;28;20042;-71
2021/03/16 05:04:42;;;;;;;13.98;10.07;;;51.70;2227.20;;;;;;4963346;28;20034;-76
2021/03/16 05:07:07;;;;;;;16.23;10.18;;;51.60;2227.20;;;;;;4971616;28;20093;-72
2021/03/16 05:09:33;;;;;;;16.80;10.32;;;51.60;2227.20;;;;;;4973916;28;20532;-73
2021/03/16 05:11:59;;;;;;;15.73;10.15;;;51.60;2227.20;;;;;;4974004;28;20033;-72
2021/03/16 05:14:24;;;;;;;15.95;10.10;;;51.60;2227.20;;;;;;4973745;28;20469;-66
2021/03/16 05:16:51;;;;;;;16.40;10.52;;;51.60;2227.20;;;;;;4973726;28;20097;-70
2021/03/16 05:19:17;;;;;;;14.40;10.35;;;51.70;2227.20;;;;;;4973657;28;20031;-67
2021/03/16 05:21:42;;;;;;;17.10;11.02;;;51.70;2227.20;;;;;;4972860;28;20025;-68
2021/03/16 05:24:09;;;;;;;17.45;10.52;;;51.70;2227.20;;;;;;4972725;28;20061;-67
2021/03/16 05:26:35;;;;;;;18.33;10.85;;;51.70;2227.20;;;;;;4972595;28;20031;-70
2021/03/16 05:29:01;;;;;;;17.23;11.73;;;51.80;2227.20;;;;;;4973281;28;20427;-71
2021/03/16 05:31:26;;;;;;;14.75;11.45;;;51.80;2227.20;;;;;;4973321;28;20031;-68
2021/03/16 05:33:52;;;;;;;16.77;11.23;;;51.80;2227.20;;;;;;4975323;28;20064;-69
2021/03/16 05:36:18;;;;;;;19.33;13.77;;;51.90;2227.20;;;;;;4963561;28;20038;-72
2021/03/16 05:38:43;;;;;;;24.15;14.93;;;51.90;2227.20;;;;;;4972146;28;20042;-68
2021/03/16 05:41:10;;;;;;;19.35;12.13;;;51.90;2227.20;;;;;;4977192;28;20041;-72
2021/03/16 05:43:36;;;;;;;18.30;12.35;;;52.00;2227.20;;;;;;4973101;28;20080;-73
2021/03/16 05:46:02;;;;;;;18.85;12.35;;;52.10;2227.20;;;;;;4973255;28;20476;-72
2021/03/16 05:48:29;;;;;;;25.27;15.15;;;52.10;2227.20;;;;;;4974486;28;20030;-82
2021/03/16 05:50:58;;;;;;;24.80;14.85;;;52.10;2227.20;;;;;;4972835;28;20440;-77
2021/03/16 05:53:25;;;;;;;18.83;12.30;;;76.80;2227.20;;;;;;4972763;28;20485;-78
2021/03/16 05:55:51;;;;;;;21.48;14.43;;;76.80;2227.20;;;;;;4974436;28;20121;-78
2021/03/16 05:58:17;;;;;;;18.42;12.43;;;76.90;2227.20;;;;;;4976724;28;20033;-73
2021/03/16 06:00:42;;;;;;;18.92;13.32;;;77.20;2227.20;;;;;;4976350;28;20038;-73
2021/03/16 06:03:08;;;;;;;24.15;14.98;;;77.00;2227.20;;;;;;4973707;28;20055;-75
2021/03/16 06:05:34;;;;;;;20.27;12.95;;;;;;;;;;4967842;28;20082;-73
2021/03/16 06:08:00;;;;;;;20.67;13.18;;;;;;;;;;4974048;28;20097;-74
2021/03/16 06:10:27;;;;;;;21.77;13.40;;;;;;;;;;4972883;28;20170;-73
2021/03/16 06:12:53;;;;;;;17.23;12.30;;;;;;;;;;4973809;28;20085;-74
2021/03/16 06:15:20;;;;;;;18.38;13.05;;;;;;;;;;4987662;28;20132;-73
2021/03/16 06:17:51;;;;;;;19.27;13.90;;;77.50;2227.20;;;;;;4973520;28;20029;-73
2021/03/16 06:20:32;;;;;;;17.65;12.63;;;77.50;2227.20;;;;;;4972010;28;20061;-72
2021/03/16 06:23:11;;;;;;;18.05;12.00;;;77.50;2227.20;;;;;;4973507;28;20089;-70
2021/03/16 06:25:45;;;;;;;18.15;12.55;;;77.60;2227.20;;;;;;4970638;28;20039;-72
2021/03/16 06:28:11;;;;;;;;;;;77.60;2227.20;;;;;;4973596;28;20049;-71
2021/03/16 06:30:38;;;;;;;19.05;13.10;;;102.40;2227.20;;;;;;4973703;28;20267;-71
2021/03/16 06:33:19;;;;;;;19.50;12.73;;;102.40;2227.20;;;;;;4974938;28;20366;-74
2021/03/16 06:36:05;;;;;;;22.15;14.38;;;102.50;2227.20;;;;;;4977705;28;20019;-70
2021/03/16 06:38:32;;;;;;;19.25;12.82;;;102.60;2227.20;;;;;;4977125;28;20073;-70
2021/03/16 06:41:13;;;;;;;16.85;13.13;;;102.50;2227.20;;;;;;4976363;28;20034;-69
2021/03/16 06:43:41;;;;;;;19.27;13.88;;;102.60;2227.20;;;;;;4976337;28;20026;-70
2021/03/16 06:46:07;;;;;;;22.88;14.05;;;102.60;2227.20;;;;;;4974746;28;20501;-70
2021/03/16 06:48:35;;;;;;;32.10;19.48;;;102.70;2227.20;;;;;;4976713;28;20101;-71
2021/03/16 06:51:10;;;;;;;32.05;17.40;;;102.80;2227.20;;;;;;4976081;28;20030;-67
2021/03/16 06:53:35;;;;;;;25.40;16.27;;;102.80;2227.20;;;;;;4976823;28;20022;-68
2021/03/16 06:56:01;;;;;;;21.52;14.45;;;102.80;2227.20;;;;;;4976357;28;20023;-73
2021/03/16 06:58:30;;;;;;;21.70;14.25;;;102.90;2227.20;;;;;;4976784;28;20106;-69
2021/03/16 07:01:24;;;;;;;16.15;12.13;;;102.90;2227.20;;;;;;4975082;28;20019;-69
2021/03/16 07:03:50;;;;;;;16.50;12.18;;;102.90;2227.20;;;;;;4969736;28;20405;-69
2021/03/16 07:06:20;;;;;;;16.83;12.27;;;103.00;2227.20;;;;;;4970235;28;20043;-70
2021/03/16 07:08:48;;;;;;;16.92;12.55;;;103.00;2227.20;;;;;;4966507;28;20035;-70
2021/03/16 07:11:17;;;;;;;19.63;13.48;;;103.10;2227.20;;;;;;4975693;28;20137;-68
2021/03/16 07:13:43;;;;;;;17.73;12.27;;;103.20;2227.20;;;;;;4974287;28;20401;-68
2021/03/16 07:16:10;;;;;;;16.13;12.07;;;103.30;2227.20;;;;;;4975764;28;20033;-69
2021/03/16 07:18:45;;;;;;;17.35;13.40;;;128.00;2252.80;;;;;;4975683;28;20035;-70
2021/03/16 07:21:19;;;;;;;17.83;13.60;;;128.10;2252.80;;;;;;4968911;28;20035;-73
2021/03/16 07:23:50;;;;;;;18.58;13.82;;;128.40;2252.80;;;;;;4976293;28;20019;-70
2021/03/16 07:26:17;;;;;;;17.15;12.88;;;128.50;2252.80;;;;;;4968043;28;20038;-69
2021/03/16 07:28:47;;;;;;;20.30;13.10;;;128.50;2252.80;;;;;;4981136;28;20053;-69
2021/03/16 07:31:14;;;;;;;14.40;12.07;;;128.90;2252.80;;;;;;4978567;28;20038;-73
2021/03/16 07:33:40;;;;;;;14.23;12.15;;;128.70;2252.80;;;;;;4975625;28;20106;-69
2021/03/16 07:36:07;;;;;;;17.23;12.43;;;128.80;2252.80;;;;;;4976486;28;20109;-67
2021/03/16 07:38:35;;;;;;;16.50;12.73;;;153.60;2252.80;;;;;;4974923;28;20027;-67
2021/03/16 07:41:01;;;;;;;16.55;12.15;;;153.60;2252.80;;;;;;4970619;28;20023;-69
2021/03/16 07:43:38;;;;;;;16.23;12.20;;;153.70;2252.80;;;;;;4973942;28;20037;-69
2021/03/16 07:46:15;;;;;;;18.73;12.90;;;153.60;2252.80;;;;;;4974627;28;20035;-72
2021/03/16 07:48:52;;;;;;;16.80;11.75;;;153.80;2252.80;;;;;;4974637;28;20031;-72
2021/03/16 07:51:22;;;;;;;23.30;12.25;;;153.90;2252.80;;;;;;4974518;28;20077;-70
2021/03/16 07:53:55;;;;;;;18.38;14.00;;;;;;;;;;4966027;28;20059;-70
2021/03/16 07:56:28;;;;;;;53.05;36.22;;;;;;;;;;4974421;28;20467;-70
2021/03/16 07:58:55;;;;;;;29.67;23.33;;;;;;;;;;4973902;28;20101;-68
2021/03/16 08:01:21;;;;;;;18.40;14.93;;;179.30;2252.80;;;;;;4973855;28;20432;-68
2021/03/16 08:03:47;;;;;;;17.75;12.90;;;179.30;2252.80;;;;;;4974877;28;20455;-68
2021/03/16 08:06:27;;;;;;;17.45;13.68;;;179.50;2252.80;;;;;;4974999;28;20488;-68
2021/03/16 08:08:53;;;;;;;19.27;12.70;;;179.70;2252.80;;;;;;4989892;28;20037;-67
2021/03/16 08:11:20;;;;;;;18.85;16.52;;;179.80;2252.80;;;;;;4973654;28;20555;-70
2021/03/16 08:13:56;;;;;;;18.70;12.43;;;179.90;2252.80;;;;;;4975669;28;20380;-77
2021/03/16 08:16:41;;;;;;;15.63;12.68;;;179.90;2252.80;;;;;;4974710;28;20118;-73
2021/03/16 08:19:14;;;;;;;15.93;11.63;;;180.10;2252.80;;;;;;4975369;28;20654;-72
2021/03/16 08:21:42;;;;;;;12.85;11.00;;;204.80;2252.80;;;;;;4974910;28;20035;-70
2021/03/16 08:24:09;;;;;;;15.27;12.07;;;204.80;2252.80;;;;;;4974482;28;20034;-69
2021/03/16 08:26:52;;;;;;;15.02;12.32;;;204.90;2252.80;;;;;;4974869;28;20034;-70
2021/03/16 08:29:28;;;;;;;16.60;12.40;;;204.80;2252.80;;;;;;4974827;28;20110;-72
2021/03/16 08:31:57;;;;;;;15.30;11.80;;;204.90;2252.80;;;;;;4974789;28;20030;-70
2021/03/16 08:34:38;;;;;;;15.50;11.90;;;204.80;2252.80;;;;;;4971046;28;20030;-70
2021/03/16 08:37:04;;;;;;;14.57;12.25;;;204.90;2252.80;;;;;;4973880;28;20033;-68
2021/03/16 08:39:30;;;;;;;18.67;13.98;;;204.90;2252.80;;;;;;4973730;28;20653;-68
2021/03/16 08:42:01;;;;;;;18.20;11.98;;;204.90;2252.80;;;;;;4972522;28;20027;-68
2021/03/16 08:44:29;;;;;;;14.00;11.07;;;204.90;2252.80;;;;;;4972716;28;20035;-73
2021/03/16 08:46:58;;;;;;;23.40;15.40;;;204.90;2252.80;;;;;;4967912;28;20077;-71
2021/03/16 08:49:25;;;;;;;15.52;12.80;;;204.90;2252.80;;;;;;4973784;28;20093;-72
2021/03/16 08:51:51;;;;;;;14.95;11.70;;;204.90;2252.80;;;;;;4974047;28;20134;-71
2021/03/16 08:54:23;;;;;;;17.10;11.45;;;205.10;2252.80;;;;;;4972494;28;20027;-72
2021/03/16 08:56:50;;;;;;;16.33;11.95;;;205.10;2252.80;;;;;;4970342;28;20034;-71
2021/03/16 08:59:21;;;;;;;15.55;12.13;;;205.00;2252.80;;;;;;4970608;28;20023;-77
2021/03/16 09:01:49;;;;;;;15.63;12.32;;;205.10;2252.80;;;;;;4975813;28;20077;-75
2021/03/16 09:04:16;;;;;;;16.42;12.27;;;205.30;2252.80;;;;;;4972426;28;20054;-70
2021/03/16 09:06:42;;;;;;;18.73;12.70;;;205.20;2252.80;;;;;;4972215;28;20038;-70
2021/03/16 09:09:09;;;;;;;16.73;12.30;;;205.30;2252.80;;;;;;4972795;28;20035;-70
2021/03/16 09:11:43;;;;;;;15.00;12.18;;;205.30;2252.80;;;;;;4972978;28;20389;-72
2021/03/16 09:14:20;;;;;;;15.20;12.77;;;205.30;2252.80;;;;;;4972809;28;20051;-72
2021/03/16 09:16:52;;;;;;;19.63;13.05;;;205.40;2252.80;;;;;;4971959;28;20041;-70
2021/03/16 09:19:21;;;;;;;17.17;12.23;;;205.40;2252.80;;;;;;4978655;28;20026;-68
2021/03/16 09:22:01;;;;;;;15.10;12.07;;;205.40;2252.80;;;;;;4971828;28;20485;-67
2021/03/16 09:24:29;;;;;;;17.88;12.93;;;205.50;2252.80;;;;;;4957102;28;20495;-79
2021/03/16 09:27:00;;;;;;;16.35;12.15;;;205.70;2252.80;;;;;;4973081;28;20062;-69
2021/03/16 09:29:29;;;;;;;20.15;12.85;;;205.70;2252.80;;;;;;4968031;28;20473;-75
2021/03/16 09:32:16;;;;;;;18.33;12.88;;;230.50;2252.80;;;;;;4969329;28;20484;-70
2021/03/16 09:34:45;;;;;;;18.92;14.13;;;230.60;2252.80;;;;;;4969402;28;20050;-73
2021/03/16 09:37:13;;;;;;;17.55;12.70;;;230.60;2252.80;;;;;;4972523;28;20022;-72
2021/03/16 09:39:38;;;;;;;16.70;14.02;;;230.70;2227.20;;;;;;4973733;28;20070;-75
2021/03/16 09:42:06;;;;;;;20.77;16.30;;;230.80;2252.80;;;;;;4972245;28;20051;-71
2021/03/16 09:44:34;;;;;;;17.80;13.65;;;231.10;2252.80;;;;;;4974406;28;20027;-73
2021/03/16 09:47:00;;;;;;;14.90;12.32;;;231.20;2176.00;;;;;;4973297;28;20035;-73
2021/03/16 09:49:28;;;;;;;16.33;12.95;;;231.20;2099.20;;;;;;4982038;28;20065;-72
2021/03/16 09:51:54;;;;;;;16.65;12.93;;;231.20;2099.20;;;;;;4972859;28;20030;-66
2021/03/16 09:54:19;;;;;;;14.80;12.07;;;231.20;2099.20;;;;;;4971395;28;20026;-70
2021/03/16 09:56:51;;;;;;;21.50;13.35;;;256.00;2099.20;;;;;;4972253;28;20476;-69
2021/03/16 09:59:17;;;;;;;16.48;12.77;;;256.00;2150.40;;;;;;4972286;28;20186;-76
2021/03/16 10:01:44;;;;;;;17.67;12.80;;;256.10;2124.80;;;;;;4973610;28;20140;-77
2021/03/16 10:04:14;;;;;;;21.02;12.98;;;256.10;2124.80;;;;;;4971533;28;20165;-71
2021/03/16 10:06:44;;;;;;;16.58;13.00;;;256.20;2099.20;;;;;;4971958;28;20484;-75
2021/03/16 10:09:17;;;;;;;16.65;13.02;;;256.50;2048.00;;;;;;4971718;28;20384;-74
2021/03/16 10:11:43;;;;;;;17.75;12.93;;;256.30;2048.00;;;;;;4972129;28;20472;-72
2021/03/16 10:14:09;;;;;;;20.08;12.90;;;256.20;2073.60;;;;;;4975057;28;20034;-75
2021/03/16 10:16:36;;;;;;;16.65;11.88;;;256.30;2176.00;;;;;;4963353;28;20034;-73
2021/03/16 10:19:02;;;;;;;16.77;12.27;;;256.20;2048.00;;;;;;4973550;28;20034;-80
2021/03/16 10:21:33;;;;;;;17.23;12.13;;;256.20;2022.40;;;;;;4973016;28;20380;-77
2021/03/16 10:24:02;;;;;;;18.10;12.35;;;256.20;1996.80;;;;;;4972888;28;20030;-73
2021/03/16 10:26:28;;;;;;;18.38;12.60;;;256.30;1945.60;;;;;;4972804;28;20138;-73
2021/03/16 10:28:54;;;;;;;17.38;14.20;;;;;;;;;;4972501;28;20106;-75
2021/03/16 10:31:26;;;;;;;15.05;11.60;;;;;;;;;;4971856;28;20383;-74
2021/03/16 10:33:53;;;;;;;15.65;12.30;;;;;;;;;;4973096;28;20030;-77
2021/03/16 10:36:20;;;;;;;19.15;12.35;;;;;;;;;;4972112;28;20122;-77
2021/03/16 10:38:48;;;;;;;16.85;12.60;;;;;;;;;;4972740;28;20085;-75
2021/03/16 10:41:15;;;;;;;15.20;12.80;;;;;;;;;;4976468;28;20049;-74
2021/03/16 10:43:41;;;;;;;18.15;13.05;;;;;;;;;;4973184;28;20023;-76
2021/03/16 10:46:07;;;;;;;16.42;13.18;;;;;;;;;;4972765;28;20444;-75
2021/03/16 10:48:33;;;;;;;18.33;13.45;;;;;;;;;;4972368;28;20058;-74
2021/03/16 10:51:02;;;;;;;12.98;11.52;;;;;;;;;;4972391;28;20027;-73
2021/03/16 10:53:28;;;;;;;15.13;11.93;;;;;;;;;;4972771;28;20015;-77
2021/03/16 10:55:54;;;;;;;15.15;11.48;;;;;;;;;;4973309;28;20027;-73
2021/03/16 10:58:20;;;;;;;16.50;12.90;;;;;;;;;;4972672;28;20033;-73
2021/03/16 11:00:46;;;;;;;21.90;12.50;;;;;;;;;;4978546;28;20019;-71
2021/03/16 11:03:12;;;;;;;17.08;12.73;;;;;;;;;;4984337;28;20419;-79
2021/03/16 11:05:38;;;;;;;14.13;12.00;;;231.30;2252.80;;;;;;4974256;28;20031;-73
2021/03/16 11:08:04;;;;;;;17.88;14.05;;;231.20;2048.00;;;;;;4972663;28;20428;-71
2021/03/16 11:10:30;;;;;;;16.65;13.90;;;231.00;2099.20;;;;;;4972911;28;20027;-74
2021/03/16 11:12:56;;;;;;;16.40;13.57;;;230.80;2099.20;;;;;;4971360;28;20107;-73
2021/03/16 11:15:22;;;;;;;18.48;13.45;;;230.70;2073.60;;;;;;4972039;28;20118;-74
2021/03/16 11:17:48;;;;;;;16.15;12.95;;;230.90;2073.60;;;;;;4987581;28;20126;-72
2021/03/16 11:20:15;;;;;;;16.27;12.48;;;231.30;2048.00;;;;;;4974640;28;20046;-71
2021/03/16 11:22:41;;;;;;;14.23;12.25;;;256.10;1996.80;;;;;;4988448;28;20109;-71
2021/03/16 11:25:08;;;;;;;14.20;12.60;;;231.20;1971.20;;;;;;4976401;28;20066;-73
2021/03/16 11:27:34;;;;;;;17.73;12.88;;;231.10;1996.80;;;;;;4977390;28;20389;-75
2021/03/16 11:30:06;;;;;;;16.00;12.60;;;231.20;2022.40;;;;;;4975545;28;20578;-76
2021/03/16 11:32:31;;;;;;;18.45;13.88;;;231.30;1971.20;;;;;;4975836;28;20031;-75
2021/03/16 11:34:57;;;;;;;25.00;18.20;;;256.20;1945.60;;;;;;4975397;28;20077;-73
2021/03/16 11:37:23;;;;;;;21.48;16.08;;;256.40;1996.80;;;;;;4975782;28;20069;-73
2021/03/16 11:39:49;;;;;;;21.42;14.65;;;256.80;1945.60;;;;;;4975625;28;20038;-78
2021/03/16 11:42:15;;;;;;;16.58;13.68;;;281.80;1920.00;;;;;;4976074;28;20062;-77
2021/03/16 11:44:40;;;;;;;15.00;12.32;;;281.90;1868.80;;;;;;4974937;28;20055;-71
2021/03/16 11:47:06;;;;;;;24.98;19.05;;;281.80;1843.20;;;;;;4975611;28;20034;-74
2021/03/16 11:49:32;;;;;;;24.95;17.20;;;281.80;1894.40;;;;;;4975561;28;20169;-76
2021/03/16 11:51:59;;;;;;;16.15;12.77;;;;;;;;;;4975894;28;20105;-77
2021/03/16 11:54:25;;;;;;;18.55;13.25;;;;;;;;;;4975303;28;20022;-73
2021/03/16 11:56:51;;;;;;;14.55;11.15;;;;;;;;;;4975410;28;20019;-73
2021/03/16 11:59:19;;;;;;;13.15;11.57;;;;;;;;;;4986091;28;20026;-74
2021/03/16 12:01:45;;;;;;;15.40;11.50;;;;;;;;;;4977882;28;20106;-73
2021/03/16 12:04:11;;;;;;;14.48;12.65;;;;;;;;;;4975481;28;20141;-74
2021/03/16 12:06:38;;;;;;;24.33;14.63;;;;;;;;;;4974875;28;20093;-78
2021/03/16 12:09:06;;;;;;;14.65;12.68;;;;;;;;;;4974297;28;20019;-73
2021/03/16 12:11:32;;;;;;;14.23;11.90;;;;;;;;;;4969422;28;20019;-78
2021/03/16 12:13:58;;;;;;;14.98;11.73;;;;;;;;;;4975248;28;20023;-74
2021/03/16 12:16:27;;;;;;;13.43;11.43;;;;;;;;;;4974577;28;20039;-73
2021/03/16 12:18:53;;;;;;;15.63;11.43;;;;;;;;;;4974831;28;20440;-73
2021/03/16 12:21:20;;;;;;;13.65;11.63;;;;;;;;;;4974525;28;20045;-74
2021/03/16 12:23:47;;;;;;;15.52;12.10;;;;;;;;;;4974704;28;20397;-73
2021/03/16 12:26:12;;;;;;;16.73;12.55;;;256.60;1792.00;;;;;;4975048;28;20062;-73
2021/03/16 12:28:38;;;;;;;12.32;11.10;;;256.60;1792.00;;;;;;4974463;28;20074;-78
2021/03/16 12:31:05;;;;;;;14.88;11.57;;;256.60;1817.60;;;;;;4977889;28;20102;-72
2021/03/16 12:33:31;;;;;;;14.02;11.00;;;256.80;1817.60;;;;;;4985536;28;20114;-73
2021/03/16 12:35:57;;;;;;;13.57;10.98;;;256.70;1740.80;;;;;;4974924;28;20078;-74